Terminal Aerodrome Forecast
Issued by NWS

Home | Current Version | Previous Version | Text Only | Print | Product List | Glossary On
Versions: 1 2 3 4 5 6 7 8 9 10 11 12 13 14 15 16 17 18 19 20 21 22 23 24 25 26 27 28 29 30
682
FTUS45 KLKN 222321
TAFEKO
TAF
KEKO 222321Z 2300/2324 24015G25KT P6SM VCSH BKN040
     FM230200 25012KT P6SM VCSH OVC040
     FM231900 26014G24KT P6SM VCSH BKN050=

USA.gov is the U.S. government's official web portal to all federal, state and local government web resources and services.